Time;durP1;ratioP1;P1;durP2;ratioP2;P2;SDS_P1;SDS_P2;PMS_P1;PMS_P2;Temp;Humidity;BMP_temperature;BMP_pressure;BME280_temperature;BME280_humidity;BME280_pressure;Samples;Min_cycle;Max_cycle;Signal;HPM_P1;HPM_P2
2024/01/23 00:02:11;;;;;;;15.30;3.20;;;7.00;99.90;;;;;;5072115;28;20044;-76
2024/01/23 00:04:36;;;;;;;18.63;3.65;;;6.90;99.90;;;;;;5092674;28;20039;-75
2024/01/23 00:07:02;;;;;;;20.63;3.35;;;6.90;99.90;;;;;;5075726;28;20439;-77
2024/01/23 00:09:28;;;;;;;17.80;3.40;;;6.90;99.90;;;;;;5092261;28;20043;-75
2024/01/23 00:11:55;;;;;;;18.00;3.63;;;6.90;99.90;;;;;;5075345;28;20071;-75
2024/01/23 00:14:20;;;;;;;20.17;3.63;;;6.90;99.90;;;;;;5075265;28;20043;-75
2024/01/23 00:16:46;;;;;;;21.15;3.80;;;7.00;99.90;;;;;;5092054;28;20400;-75
2024/01/23 00:19:12;;;;;;;17.58;2.95;;;7.10;99.90;;;;;;5092140;28;20043;-75
2024/01/23 00:21:38;;;;;;;20.00;3.30;;;7.00;99.90;;;;;;5075398;28;20108;-77
2024/01/23 00:24:04;;;;;;;20.35;3.80;;;7.10;99.90;;;;;;5092075;28;20130;-76
2024/01/23 00:26:30;;;;;;;16.15;2.95;;;7.10;99.90;;;;;;5075092;28;20044;-76
2024/01/23 00:28:56;;;;;;;16.60;3.53;;;7.10;99.90;;;;;;5091925;28;20184;-75
2024/01/23 00:31:21;;;;;;;19.52;3.25;;;7.20;99.90;;;;;;5091820;28;20040;-72
2024/01/23 00:33:47;;;;;;;20.25;3.78;;;7.10;99.90;;;;;;5091572;28;20032;-76
2024/01/23 00:36:13;;;;;;;16.42;3.50;;;7.20;99.90;;;;;;5091779;28;20044;-75
2024/01/23 00:38:39;;;;;;;18.98;3.30;;;7.20;99.90;;;;;;5074896;28;20123;-76
2024/01/23 00:41:04;;;;;;;15.20;3.42;;;7.10;99.90;;;;;;5091998;28;20456;-68
2024/01/23 00:43:30;;;;;;;19.02;3.53;;;7.20;99.90;;;;;;5091696;28;20040;-67
2024/01/23 00:45:56;;;;;;;18.17;3.30;;;7.20;99.90;;;;;;5075072;28;20563;-68
2024/01/23 00:48:22;;;;;;;17.50;3.00;;;7.20;99.90;;;;;;5074989;28;20040;-67
2024/01/23 00:50:47;;;;;;;14.93;3.20;;;7.10;99.90;;;;;;5091362;28;20485;-68
2024/01/23 00:53:14;;;;;;;17.95;3.28;;;7.20;99.90;;;;;;5091866;28;20052;-68
2024/01/23 00:55:40;;;;;;;14.30;3.13;;;7.10;99.90;;;;;;5075011;28;20550;-68
2024/01/23 00:58:06;;;;;;;16.70;3.33;;;7.10;99.90;;;;;;5088074;28;20036;-67
2024/01/23 01:00:32;;;;;;;19.52;3.10;;;7.20;99.90;;;;;;5091337;28;20089;-68
2024/01/23 01:02:57;;;;;;;15.55;2.97;;;7.10;99.90;;;;;;5074538;28;20040;-68
2024/01/23 01:05:23;;;;;;;16.60;3.10;;;7.00;99.90;;;;;;5074963;28;20127;-67
2024/01/23 01:07:49;;;;;;;18.42;3.30;;;7.10;99.90;;;;;;5091393;28;20044;-67
2024/01/23 01:10:15;;;;;;;18.58;3.40;;;7.00;99.90;;;;;;5091321;28;20047;-68
2024/01/23 01:12:40;;;;;;;15.52;3.33;;;7.00;99.90;;;;;;5091879;28;20040;-67
2024/01/23 01:15:07;;;;;;;21.70;3.30;;;7.00;99.90;;;;;;5091329;28;20036;-67
2024/01/23 01:17:32;;;;;;;20.45;3.53;;;6.90;99.90;;;;;;5091374;28;20040;-67
2024/01/23 01:19:58;;;;;;;16.55;3.28;;;6.90;99.90;;;;;;5091554;28;20046;-67
2024/01/23 01:22:24;;;;;;;17.15;3.33;;;6.80;99.90;;;;;;5091223;28;20047;-67
2024/01/23 01:24:50;;;;;;;17.55;3.05;;;6.90;99.90;;;;;;5058107;28;20048;-68
2024/01/23 01:27:16;;;;;;;15.60;3.42;;;6.80;99.90;;;;;;5074716;28;20090;-68
2024/01/23 01:29:41;;;;;;;13.52;2.85;;;6.80;99.90;;;;;;5057843;28;20123;-67
2024/01/23 01:32:08;;;;;;;17.80;3.30;;;6.80;99.90;;;;;;5091074;28;20521;-68
2024/01/23 01:34:33;;;;;;;19.77;3.40;;;6.80;99.90;;;;;;5074673;28;20426;-67
2024/01/23 01:36:59;;;;;;;22.40;3.55;;;6.80;99.90;;;;;;5091116;28;20052;-68
2024/01/23 01:39:25;;;;;;;19.90;3.22;;;6.80;99.90;;;;;;5074339;28;20043;-67
2024/01/23 01:41:54;;;;;;;16.95;3.60;;;6.80;99.90;;;;;;5091076;28;20047;-67
2024/01/23 01:44:20;;;;;;;15.65;2.42;;;6.80;99.90;;;;;;5093385;28;20137;-67
2024/01/23 01:46:47;;;;;;;15.13;3.10;;;6.90;99.90;;;;;;5078191;28;20040;-68
2024/01/23 01:49:15;;;;;;;18.33;3.40;;;6.90;99.90;;;;;;5095097;28;20130;-67
2024/01/23 01:51:42;;;;;;;18.08;3.50;;;6.90;99.90;;;;;;5094969;28;20114;-67
2024/01/23 01:54:08;;;;;;;17.58;3.13;;;6.90;99.90;;;;;;5091398;28;20067;-67
2024/01/23 01:56:34;;;;;;;18.83;3.53;;;6.80;99.90;;;;;;5095112;28;20075;-67
2024/01/23 01:59:00;;;;;;;20.83;3.63;;;6.80;99.90;;;;;;5094799;28;20036;-67
2024/01/23 02:01:27;;;;;;;16.48;3.40;;;6.80;99.90;;;;;;5077681;28;20464;-67
2024/01/23 02:03:56;;;;;;;22.42;3.83;;;6.90;99.90;;;;;;5094863;28;20047;-68
2024/01/23 02:06:23;;;;;;;17.17;3.75;;;6.90;99.90;;;;;;5061851;28;20126;-68
2024/01/23 02:08:50;;;;;;;21.35;3.53;;;6.90;99.90;;;;;;5094583;28;20051;-68
2024/01/23 02:11:15;;;;;;;16.88;3.28;;;6.80;99.90;;;;;;5077670;28;20048;-68
2024/01/23 02:13:44;;;;;;;16.88;3.13;;;6.80;99.90;;;;;;5094556;28;20119;-68
2024/01/23 02:16:11;;;;;;;17.88;3.30;;;6.80;99.90;;;;;;5094402;28;20044;-68
2024/01/23 02:18:37;;;;;;;19.98;3.50;;;6.70;99.90;;;;;;5094430;28;20036;-67
2024/01/23 02:21:02;;;;;;;18.33;3.60;;;6.70;99.90;;;;;;5094564;28;20044;-68
2024/01/23 02:23:30;;;;;;;21.52;3.88;;;6.70;99.90;;;;;;5077484;28;20047;-68
2024/01/23 02:25:56;;;;;;;20.30;4.30;;;6.60;99.90;;;;;;5094553;28;20042;-67
2024/01/23 02:28:22;;;;;;;14.85;3.25;;;6.60;99.90;;;;;;5077423;28;20075;-68
2024/01/23 02:30:48;;;;;;;17.52;3.83;;;6.60;99.90;;;;;;5094179;28;20040;-68
2024/01/23 02:33:14;;;;;;;17.17;3.85;;;6.50;99.90;;;;;;5077186;28;20382;-68
2024/01/23 02:35:40;;;;;;;18.63;3.70;;;6.50;99.90;;;;;;5094128;28;20055;-68
2024/01/23 02:38:08;;;;;;;20.00;4.22;;;6.60;99.90;;;;;;5094347;28;20430;-67
2024/01/23 02:40:34;;;;;;;21.10;4.13;;;6.60;99.90;;;;;;5094140;28;20122;-67
2024/01/23 02:43:00;;;;;;;19.77;3.40;;;6.50;99.90;;;;;;5093975;28;20082;-68
2024/01/23 02:45:25;;;;;;;16.65;3.50;;;6.50;99.90;;;;;;5093910;28;20040;-67
2024/01/23 02:47:51;;;;;;;18.10;3.65;;;6.50;99.90;;;;;;5060660;28;20544;-68
2024/01/23 02:50:17;;;;;;;19.73;3.92;;;6.40;99.90;;;;;;5072559;28;20036;-68
2024/01/23 02:52:43;;;;;;;19.50;3.92;;;6.40;99.90;;;;;;5076650;28;20048;-67
2024/01/23 02:55:09;;;;;;;21.42;4.00;;;6.40;99.90;;;;;;5093290;28;20484;-67
2024/01/23 02:57:35;;;;;;;23.48;4.00;;;6.30;99.90;;;;;;5076824;28;20123;-67
2024/01/23 03:00:01;;;;;;;20.17;3.38;;;6.30;99.90;;;;;;5093646;28;20781;-75
2024/01/23 03:02:27;;;;;;;20.38;4.03;;;6.30;99.90;;;;;;5093472;28;20032;-75
2024/01/23 03:04:52;;;;;;;15.52;3.60;;;6.30;99.90;;;;;;5093506;28;20040;-74
2024/01/23 03:07:18;;;;;;;21.88;4.05;;;6.30;99.90;;;;;;5076636;28;20078;-75
2024/01/23 03:09:44;;;;;;;20.52;4.07;;;6.30;99.90;;;;;;5093509;28;20036;-75
2024/01/23 03:12:20;;;;;;;19.13;3.70;;;6.20;99.90;;;;;;5093362;28;20393;-75
2024/01/23 03:14:47;;;;;;;16.63;3.13;;;6.30;99.90;;;;;;5077239;28;20040;-75
2024/01/23 03:17:14;;;;;;;17.00;3.50;;;6.40;99.90;;;;;;5093257;28;20043;-75
2024/01/23 03:19:41;;;;;;;19.55;4.00;;;6.20;99.90;;;;;;5093300;28;20044;-75
2024/01/23 03:22:08;;;;;;;20.98;4.00;;;6.20;99.90;;;;;;5093152;28;20126;-74
2024/01/23 03:24:37;;;;;;;23.38;3.80;;;6.30;99.90;;;;;;5093388;28;20040;-75
2024/01/23 03:27:04;;;;;;;18.33;4.03;;;6.30;99.90;;;;;;5093335;28;20052;-75
2024/01/23 03:29:40;;;;;;;20.95;4.00;;;6.30;99.90;;;;;;5093304;28;20044;-75
2024/01/23 03:32:06;;;;;;;22.33;4.03;;;6.30;99.90;;;;;;5092935;28;20036;-75
2024/01/23 03:34:33;;;;;;;20.00;4.25;;;6.30;99.90;;;;;;5076696;28;20130;-75
2024/01/23 03:37:01;;;;;;;18.67;3.90;;;6.30;99.90;;;;;;5092908;28;20109;-75
2024/01/23 03:39:27;;;;;;;21.58;3.78;;;6.30;99.90;;;;;;5092925;28;20036;-72
2024/01/23 03:41:53;;;;;;;15.02;3.50;;;6.40;99.90;;;;;;5076288;28;20044;-75
2024/01/23 03:44:21;;;;;;;19.33;3.65;;;6.40;99.90;;;;;;5075953;28;20093;-75
2024/01/23 03:46:47;;;;;;;21.80;3.85;;;6.40;99.90;;;;;;5089261;28;20098;-75
2024/01/23 03:49:13;;;;;;;20.67;3.90;;;6.40;99.90;;;;;;5092619;28;20040;-75
2024/01/23 03:51:39;;;;;;;18.70;3.50;;;6.50;99.90;;;;;;5075535;28;20105;-75
2024/01/23 03:54:04;;;;;;;19.92;3.67;;;6.50;99.90;;;;;;5092477;28;20526;-75
2024/01/23 03:56:30;;;;;;;16.08;3.80;;;6.50;99.90;;;;;;5092565;28;20035;-75
2024/01/23 03:58:56;;;;;;;22.45;3.85;;;6.50;99.90;;;;;;5075767;28;20040;-74
2024/01/23 04:01:21;;;;;;;19.02;3.85;;;6.40;99.90;;;;;;5075579;28;20040;-75
2024/01/23 04:03:47;;;;;;;15.13;3.20;;;6.30;99.90;;;;;;5092382;28;20105;-75
2024/01/23 04:06:13;;;;;;;24.60;4.53;;;6.40;99.90;;;;;;5092262;28;20416;-75
2024/01/23 04:08:38;;;;;;;18.95;3.53;;;6.40;99.90;;;;;;5091880;28;20036;-75
2024/01/23 04:11:04;;;;;;;20.55;3.90;;;6.40;99.90;;;;;;5092232;28;20055;-75
2024/01/23 04:13:30;;;;;;;18.88;4.38;;;6.40;99.90;;;;;;5075435;28;20071;-76
2024/01/23 04:15:56;;;;;;;17.10;3.45;;;6.40;99.90;;;;;;5092101;28;20036;-74
2024/01/23 04:18:22;;;;;;;22.70;4.28;;;6.40;99.90;;;;;;5075706;28;20080;-75
2024/01/23 04:20:48;;;;;;;22.42;4.22;;;6.40;99.90;;;;;;5092057;28;20125;-75
2024/01/23 04:23:14;;;;;;;22.17;3.97;;;6.40;99.90;;;;;;5093299;28;20128;-75
2024/01/23 04:25:39;;;;;;;19.42;4.05;;;6.50;99.90;;;;;;5091942;28;20093;-75
2024/01/23 04:28:05;;;;;;;21.92;4.43;;;6.50;99.90;;;;;;5093252;28;20059;-75
2024/01/23 04:30:31;;;;;;;23.85;4.30;;;6.40;99.90;;;;;;5091857;28;20040;-76
2024/01/23 04:32:56;;;;;;;20.35;4.03;;;6.50;99.90;;;;;;5074995;28;20032;-75
2024/01/23 04:35:23;;;;;;;21.13;3.88;;;6.60;99.90;;;;;;5092163;28;20075;-75
2024/01/23 04:37:48;;;;;;;20.88;4.07;;;6.60;99.90;;;;;;5091871;28;20044;-75
2024/01/23 04:40:14;;;;;;;21.33;4.10;;;6.60;99.90;;;;;;5074904;28;20077;-75
2024/01/23 04:42:40;;;;;;;22.23;3.60;;;6.60;99.90;;;;;;5074650;28;20047;-76
2024/01/23 04:45:08;;;;;;;22.52;3.88;;;6.60;99.90;;;;;;5091641;28;20036;-75
2024/01/23 04:47:34;;;;;;;28.42;4.85;;;6.60;99.90;;;;;;5074763;28;20047;-75
2024/01/23 04:50:01;;;;;;;17.27;3.58;;;6.70;99.90;;;;;;5091588;28;20461;-76
2024/01/23 04:52:26;;;;;;;27.52;4.80;;;6.70;99.90;;;;;;5091485;28;20458;-76
2024/01/23 04:54:52;;;;;;;19.08;3.78;;;6.70;99.90;;;;;;5075045;28;20093;-76
2024/01/23 04:57:18;;;;;;;18.60;4.07;;;6.70;99.90;;;;;;5091713;28;20036;-75
2024/01/23 04:59:44;;;;;;;22.83;4.18;;;6.80;99.90;;;;;;5074739;28;20039;-75
2024/01/23 05:02:10;;;;;;;23.10;4.53;;;6.70;99.90;;;;;;5074588;28;20093;-75
2024/01/23 05:04:36;;;;;;;22.95;4.68;;;6.70;99.90;;;;;;5091477;28;20044;-75
2024/01/23 05:07:02;;;;;;;26.05;4.85;;;6.70;99.90;;;;;;5074555;28;20051;-75
2024/01/23 05:09:31;;;;;;;21.67;4.18;;;6.70;99.90;;;;;;5091620;28;20035;-76
2024/01/23 05:12:00;;;;;;;25.70;5.00;;;6.70;99.90;;;;;;5091308;28;20036;-75
2024/01/23 05:14:25;;;;;;;23.55;4.60;;;6.70;99.90;;;;;;5091368;28;20443;-75
2024/01/23 05:16:51;;;;;;;23.77;4.60;;;6.70;99.90;;;;;;5074941;28;20101;-75
2024/01/23 05:19:17;;;;;;;22.92;4.68;;;6.80;99.90;;;;;;5076814;28;20040;-75
2024/01/23 05:21:43;;;;;;;24.95;4.43;;;6.70;99.90;;;;;;5095478;28;20055;-75
2024/01/23 05:24:09;;;;;;;28.95;5.00;;;6.70;99.90;;;;;;5095831;28;20044;-75
2024/01/23 05:26:34;;;;;;;21.63;4.55;;;6.70;99.90;;;;;;5095672;28;20284;-75
2024/01/23 05:29:00;;;;;;;23.95;4.68;;;6.70;99.90;;;;;;5095362;28;20047;-75
2024/01/23 05:31:26;;;;;;;24.92;4.75;;;6.80;99.90;;;;;;5095279;28;20043;-75
2024/01/23 05:33:52;;;;;;;23.73;4.40;;;6.70;99.90;;;;;;5078429;28;20044;-75
2024/01/23 05:36:18;;;;;;;23.55;4.60;;;6.70;99.90;;;;;;5095522;28;20126;-75
2024/01/23 05:38:44;;;;;;;23.08;4.45;;;6.70;99.90;;;;;;5091799;28;20043;-75
2024/01/23 05:41:10;;;;;;;26.70;4.22;;;6.70;99.90;;;;;;5095339;28;20036;-75
2024/01/23 05:43:36;;;;;;;23.70;5.30;;;6.80;99.90;;;;;;5095384;28;20044;-74
2024/01/23 05:46:02;;;;;;;24.95;5.07;;;6.80;99.90;;;;;;5078530;28;20101;-75
2024/01/23 05:48:28;;;;;;;25.65;4.90;;;6.80;99.90;;;;;;5095015;28;20078;-75
2024/01/23 05:50:53;;;;;;;22.95;4.43;;;6.80;99.90;;;;;;5094671;28;20047;-75
2024/01/23 05:53:19;;;;;;;22.40;4.53;;;6.80;99.90;;;;;;5094901;28;20044;-75
2024/01/23 05:55:45;;;;;;;22.73;4.57;;;6.80;99.90;;;;;;5094825;28;20044;-74
2024/01/23 05:58:11;;;;;;;23.20;4.75;;;6.80;99.90;;;;;;5094849;28;20036;-75
2024/01/23 06:00:37;;;;;;;23.85;4.90;;;6.80;99.90;;;;;;5094650;28;20047;-75
2024/01/23 06:03:03;;;;;;;26.58;4.75;;;6.80;99.90;;;;;;5078088;28;20618;-75
2024/01/23 06:05:29;;;;;;;26.63;5.13;;;6.80;99.90;;;;;;5094690;28;20115;-75
2024/01/23 06:07:55;;;;;;;30.00;4.82;;;6.80;99.90;;;;;;5077943;28;20173;-75
2024/01/23 06:10:20;;;;;;;30.75;5.28;;;6.80;99.90;;;;;;5094830;28;20178;-75
2024/01/23 06:12:46;;;;;;;27.83;5.15;;;6.80;99.90;;;;;;5094563;28;20043;-75
2024/01/23 06:15:13;;;;;;;28.38;4.85;;;6.80;99.90;;;;;;5094587;28;20047;-76
2024/01/23 06:17:39;;;;;;;22.55;4.30;;;6.80;99.90;;;;;;5061074;28;20040;-75
2024/01/23 06:20:07;;;;;;;25.58;4.95;;;6.80;99.90;;;;;;5094359;28;20038;-75
2024/01/23 06:22:33;;;;;;;32.17;5.63;;;6.80;99.90;;;;;;5077748;28;20070;-75
2024/01/23 06:25:03;;;;;;;28.48;5.13;;;6.80;99.90;;;;;;5094350;28;20036;-75
2024/01/23 06:27:29;;;;;;;26.60;5.28;;;6.80;99.90;;;;;;5060906;28;20046;-76
2024/01/23 06:29:55;;;;;;;26.25;5.32;;;6.80;99.90;;;;;;5093061;28;20039;-68
2024/01/23 06:32:20;;;;;;;30.20;5.82;;;6.90;99.90;;;;;;5077348;28;20110;-67
2024/01/23 06:34:46;;;;;;;25.92;4.95;;;6.80;99.90;;;;;;5090650;28;20036;-68
2024/01/23 06:37:12;;;;;;;31.67;5.50;;;6.90;99.90;;;;;;5060798;28;20135;-67
2024/01/23 06:39:39;;;;;;;30.55;6.18;;;6.90;99.90;;;;;;5094073;28;20040;-68
2024/01/23 06:42:04;;;;;;;26.98;4.97;;;6.90;99.90;;;;;;5093929;28;20052;-68
2024/01/23 06:44:30;;;;;;;32.53;5.97;;;6.90;99.90;;;;;;5093966;28;20044;-68
2024/01/23 06:46:56;;;;;;;27.20;5.50;;;6.90;99.90;;;;;;5064233;28;20055;-68
2024/01/23 06:49:22;;;;;;;30.58;6.28;;;7.00;99.90;;;;;;5077081;28;20093;-68
2024/01/23 06:51:47;;;;;;;36.78;6.40;;;7.00;99.90;;;;;;5074530;28;20056;-68
2024/01/23 06:54:13;;;;;;;30.23;5.70;;;7.00;99.90;;;;;;5073563;28;20553;-68
2024/01/23 06:56:39;;;;;;;31.45;5.80;;;7.00;99.90;;;;;;5090149;28;20040;-68
2024/01/23 06:59:05;;;;;;;26.52;5.05;;;7.00;99.90;;;;;;5077088;28;20039;-68
2024/01/23 07:01:31;;;;;;;25.38;5.35;;;7.00;99.90;;;;;;5093866;28;20097;-67
2024/01/23 07:03:57;;;;;;;31.00;5.45;;;7.00;99.90;;;;;;5093439;28;20214;-68
2024/01/23 07:06:22;;;;;;;31.20;6.15;;;7.00;99.90;;;;;;5093845;28;20492;-68
2024/01/23 07:08:48;;;;;;;25.77;4.95;;;6.90;99.90;;;;;;5093545;28;20044;-68
2024/01/23 07:11:14;;;;;;;30.92;5.90;;;6.90;99.90;;;;;;5093526;28;20044;-68
2024/01/23 07:13:40;;;;;;;29.48;5.72;;;6.90;99.90;;;;;;5076789;28;20036;-67
2024/01/23 07:16:06;;;;;;;28.45;5.75;;;6.90;99.90;;;;;;5093626;28;20047;-67
2024/01/23 07:18:32;;;;;;;32.83;5.95;;;6.80;99.90;;;;;;5076651;28;20552;-67
2024/01/23 07:20:59;;;;;;;28.00;5.20;;;6.80;99.90;;;;;;5093180;28;20123;-68
2024/01/23 07:23:25;;;;;;;28.20;4.97;;;6.80;99.90;;;;;;5076378;28;20043;-68
2024/01/23 07:25:51;;;;;;;27.58;5.30;;;6.80;99.90;;;;;;5093306;28;20373;-68
2024/01/23 07:28:17;;;;;;;27.73;5.90;;;6.80;99.90;;;;;;5076748;28;20040;-68
2024/01/23 07:30:42;;;;;;;22.17;4.97;;;6.80;99.90;;;;;;5075589;28;20036;-67
2024/01/23 07:33:09;;;;;;;29.80;5.68;;;6.80;99.90;;;;;;5056133;28;20067;-68
2024/01/23 07:35:35;;;;;;;29.58;5.82;;;6.80;99.90;;;;;;5073133;28;20039;-68
2024/01/23 07:38:01;;;;;;;33.25;5.95;;;6.80;99.90;;;;;;5072706;28;20401;-68
2024/01/23 07:40:27;;;;;;;29.13;5.43;;;6.70;99.90;;;;;;5072822;28;20413;-68
2024/01/23 07:42:52;;;;;;;31.45;5.70;;;6.80;99.90;;;;;;5072459;28;20040;-68
2024/01/23 07:45:19;;;;;;;31.77;5.63;;;6.80;99.90;;;;;;5072876;28;20052;-68
2024/01/23 07:47:45;;;;;;;31.67;5.18;;;6.80;99.90;;;;;;5072601;28;20098;-68
2024/01/23 07:50:12;;;;;;;27.90;4.93;;;6.70;99.90;;;;;;5055982;28;20040;-74
2024/01/23 07:52:38;;;;;;;28.90;5.90;;;6.80;99.90;;;;;;5056128;28;20102;-75
2024/01/23 07:55:04;;;;;;;30.85;5.40;;;6.70;99.90;;;;;;5074011;28;20127;-74
2024/01/23 07:57:30;;;;;;;28.05;5.47;;;6.70;99.90;;;;;;5057723;28;20080;-75
2024/01/23 07:59:57;;;;;;;30.13;5.75;;;6.80;99.90;;;;;;5074466;28;20044;-74
2024/01/23 08:02:24;;;;;;;29.13;5.22;;;6.80;99.90;;;;;;5077335;28;20048;-75
2024/01/23 08:04:50;;;;;;;34.03;6.05;;;6.70;99.90;;;;;;5068339;28;20040;-76
2024/01/23 08:07:15;;;;;;;33.33;5.65;;;6.80;99.90;;;;;;5086271;28;20047;-75
2024/01/23 08:09:41;;;;;;;27.05;5.43;;;6.80;99.90;;;;;;5071352;28;20489;-74
2024/01/23 08:12:07;;;;;;;26.88;5.07;;;6.70;99.90;;;;;;5084702;28;20048;-75
2024/01/23 08:14:33;;;;;;;28.85;5.32;;;6.70;99.90;;;;;;5073928;28;20528;-75
2024/01/23 08:16:59;;;;;;;29.23;5.38;;;6.70;99.90;;;;;;5074320;28;20123;-73
2024/01/23 08:19:26;;;;;;;24.70;5.05;;;6.60;99.90;;;;;;5061738;28;20043;-73
2024/01/23 08:21:51;;;;;;;30.58;5.60;;;6.60;99.90;;;;;;5079307;28;20048;-73
2024/01/23 08:24:17;;;;;;;32.58;6.13;;;6.60;99.90;;;;;;5077858;28;20114;-74
2024/01/23 08:26:43;;;;;;;29.70;5.55;;;6.50;99.90;;;;;;5058534;28;20040;-72
2024/01/23 08:29:09;;;;;;;26.40;5.50;;;6.50;99.90;;;;;;5072135;28;20078;-74
2024/01/23 08:31:35;;;;;;;27.17;5.07;;;6.50;99.90;;;;;;5073552;28;20049;-74
2024/01/23 08:34:01;;;;;;;32.38;5.78;;;6.50;99.90;;;;;;5072608;28;20037;-75
2024/01/23 08:36:27;;;;;;;29.48;5.47;;;6.50;99.90;;;;;;5072839;28;20140;-75
2024/01/23 08:38:53;;;;;;;30.92;6.30;;;6.50;99.90;;;;;;5057072;28;20594;-74
2024/01/23 08:41:19;;;;;;;27.60;5.25;;;6.50;99.90;;;;;;5100145;28;20052;-74
2024/01/23 08:43:45;;;;;;;30.45;5.20;;;6.50;99.90;;;;;;5082103;28;20055;-74
2024/01/23 08:46:13;;;;;;;30.55;5.60;;;6.60;99.90;;;;;;5055632;28;20089;-75
2024/01/23 08:48:39;;;;;;;27.98;5.22;;;6.60;99.90;;;;;;5088754;28;20397;-74
2024/01/23 08:51:05;;;;;;;30.42;5.82;;;6.60;99.90;;;;;;5088055;28;20049;-75
2024/01/23 08:53:32;;;;;;;30.33;5.53;;;6.60;99.90;;;;;;5071195;28;20342;-75
2024/01/23 08:55:57;;;;;;;26.83;5.05;;;6.70;99.90;;;;;;5071630;28;20086;-75
2024/01/23 08:58:23;;;;;;;29.42;5.93;;;6.70;99.90;;;;;;5054976;28;20109;-76
2024/01/23 09:00:49;;;;;;;29.27;5.78;;;6.80;99.90;;;;;;5072265;28;20044;-68
2024/01/23 09:03:15;;;;;;;25.40;5.43;;;6.80;99.90;;;;;;5054746;28;20129;-66
2024/01/23 09:05:41;;;;;;;28.92;6.03;;;6.80;99.90;;;;;;5071566;28;20048;-67
2024/01/23 09:08:06;;;;;;;28.17;5.25;;;6.90;99.90;;;;;;5071684;28;20195;-66
2024/01/23 09:10:32;;;;;;;31.77;5.57;;;6.90;99.90;;;;;;5054426;28;20128;-67
2024/01/23 09:12:58;;;;;;;28.77;5.43;;;7.00;99.90;;;;;;5071275;28;20404;-66
2024/01/23 09:15:24;;;;;;;30.23;5.43;;;7.00;99.90;;;;;;5071176;28;20047;-67
2024/01/23 09:17:50;;;;;;;26.33;5.45;;;7.10;99.90;;;;;;5071540;28;20040;-67
2024/01/23 09:20:17;;;;;;;29.58;5.93;;;7.10;99.90;;;;;;5087947;28;20044;-67
2024/01/23 09:22:43;;;;;;;32.15;5.63;;;7.20;99.90;;;;;;5072221;28;20041;-67
2024/01/23 09:25:09;;;;;;;31.70;6.28;;;7.20;99.90;;;;;;5074764;28;20557;-67
2024/01/23 09:27:35;;;;;;;24.90;5.20;;;7.30;99.90;;;;;;5074527;28;20036;-67
2024/01/23 09:30:01;;;;;;;25.90;5.63;;;7.40;99.90;;;;;;5058031;28;20036;-67
2024/01/23 09:32:30;;;;;;;29.58;5.68;;;7.40;99.90;;;;;;5091324;28;20036;-67
2024/01/23 09:34:55;;;;;;;29.40;6.07;;;7.50;99.90;;;;;;5074714;28;20039;-68
2024/01/23 09:37:21;;;;;;;31.88;5.75;;;7.50;99.90;;;;;;5091523;28;20039;-67
2024/01/23 09:39:47;;;;;;;30.75;6.13;;;7.50;99.90;;;;;;5091402;28;20165;-67
2024/01/23 09:42:14;;;;;;;30.98;6.35;;;7.50;99.90;;;;;;5091568;28;20040;-67
2024/01/23 09:44:40;;;;;;;29.30;6.15;;;7.50;99.90;;;;;;5074375;28;20131;-67
2024/01/23 09:47:08;;;;;;;27.50;6.10;;;7.60;99.90;;;;;;5074250;28;20131;-67
2024/01/23 09:49:36;;;;;;;30.85;6.07;;;7.70;99.90;;;;;;5091411;28;20051;-68
2024/01/23 09:52:04;;;;;;;29.45;6.38;;;7.70;99.90;;;;;;5090598;28;20064;-67
2024/01/23 09:54:31;;;;;;;28.10;5.22;;;7.70;99.90;;;;;;5091294;28;20044;-67
2024/01/23 09:57:01;;;;;;;26.80;5.72;;;7.80;99.90;;;;;;5091297;28;20040;-67
2024/01/23 09:59:27;;;;;;;24.38;5.47;;;7.80;99.90;;;;;;5074477;28;20032;-67
2024/01/23 10:01:54;;;;;;;26.38;6.03;;;7.80;99.90;;;;;;5074010;28;20044;-67
2024/01/23 10:04:21;;;;;;;27.23;5.35;;;7.90;99.90;;;;;;5091861;28;20075;-68
2024/01/23 10:06:47;;;;;;;25.65;5.30;;;7.90;99.90;;;;;;5077722;28;20036;-69
2024/01/23 10:09:14;;;;;;;31.52;6.18;;;8.00;99.90;;;;;;5078194;28;20131;-67
2024/01/23 10:11:41;;;;;;;30.67;6.30;;;8.00;99.90;;;;;;5094791;28;20044;-76
2024/01/23 10:14:07;;;;;;;28.27;5.30;;;8.10;99.90;;;;;;5094768;28;20130;-75
2024/01/23 10:16:33;;;;;;;31.02;6.15;;;8.10;99.90;;;;;;5094552;28;20042;-75
2024/01/23 10:18:59;;;;;;;27.42;5.28;;;8.20;99.90;;;;;;5094484;28;20037;-75
2024/01/23 10:21:25;;;;;;;29.10;6.03;;;8.20;99.90;;;;;;5060944;28;20044;-76
2024/01/23 10:23:52;;;;;;;29.52;6.13;;;8.30;99.90;;;;;;5060848;28;20078;-75
2024/01/23 10:26:19;;;;;;;24.80;5.00;;;8.30;99.90;;;;;;5078068;28;20477;-75
2024/01/23 10:28:46;;;;;;;32.40;6.35;;;8.30;99.90;;;;;;5077805;28;20040;-75
2024/01/23 10:31:12;;;;;;;29.52;6.15;;;8.30;99.90;;;;;;5077380;28;20048;-75
2024/01/23 10:33:41;;;;;;;31.40;5.65;;;8.20;99.90;;;;;;5094588;28;20036;-75
2024/01/23 10:36:08;;;;;;;26.88;5.13;;;8.10;99.90;;;;;;5094512;28;20489;-75
2024/01/23 10:38:35;;;;;;;29.30;5.85;;;8.10;99.90;;;;;;5094164;28;20040;-75
2024/01/23 10:41:06;;;;;;;30.35;5.75;;;8.10;99.90;;;;;;5094331;28;20048;-75
2024/01/23 10:43:33;;;;;;;30.90;5.85;;;8.10;99.90;;;;;;5094177;28;20164;-75
2024/01/23 10:46:02;;;;;;;33.05;6.25;;;8.00;99.90;;;;;;5093799;28;20128;-75
2024/01/23 10:48:30;;;;;;;28.60;5.45;;;8.20;99.90;;;;;;5077587;28;20048;-75
2024/01/23 10:51:03;;;;;;;23.88;5.10;;;8.20;99.90;;;;;;5076930;28;20036;-75
2024/01/23 10:53:37;;;;;;;28.63;5.47;;;8.30;99.90;;;;;;5093730;28;20059;-75
2024/01/23 10:56:07;;;;;;;26.02;5.45;;;8.30;99.90;;;;;;5094049;28;20052;-76
2024/01/23 10:58:35;;;;;;;24.88;5.10;;;8.40;99.90;;;;;;5077360;28;20579;-76
2024/01/23 11:01:03;;;;;;;26.98;5.72;;;8.40;99.90;;;;;;5093767;28;20073;-76
2024/01/23 11:03:32;;;;;;;29.90;5.65;;;8.30;99.90;;;;;;5077304;28;20533;-76
2024/01/23 11:06:10;;;;;;;27.90;5.78;;;8.30;99.90;;;;;;5076793;28;20056;-76
2024/01/23 11:09:22;;;;;;;25.65;5.88;;;8.30;99.90;;;;;;5077059;28;20568;-75
2024/01/23 11:12:09;;;;;;;29.73;5.47;;;8.40;99.90;;;;;;5093682;28;20040;-75
2024/01/23 11:14:55;;;;;;;24.05;5.18;;;8.40;99.90;;;;;;5093688;28;20082;-75
2024/01/23 11:17:22;;;;;;;29.58;5.55;;;8.30;99.90;;;;;;5072488;28;20036;-76
2024/01/23 11:20:08;;;;;;;24.00;5.18;;;8.30;99.90;;;;;;5073599;28;20502;-75
2024/01/23 11:22:36;;;;;;;27.88;5.43;;;8.30;99.90;;;;;;5073345;28;20481;-76
2024/01/23 11:25:03;;;;;;;25.25;4.70;;;8.20;99.90;;;;;;5073306;28;20051;-76
2024/01/23 11:27:33;;;;;;;26.02;4.90;;;8.30;99.90;;;;;;5073371;28;20397;-76
2024/01/23 11:29:59;;;;;;;31.60;5.63;;;8.30;99.90;;;;;;5072917;28;20040;-76
2024/01/23 11:32:28;;;;;;;26.35;5.35;;;8.30;99.90;;;;;;5072909;28;20084;-75
2024/01/23 11:35:06;;;;;;;30.02;5.30;;;8.40;99.90;;;;;;5039727;28;20044;-76
2024/01/23 11:37:32;;;;;;;27.00;5.07;;;8.30;99.90;;;;;;5072847;28;20051;-76
2024/01/23 11:40:05;;;;;;;27.48;5.75;;;8.30;99.90;;;;;;5072804;28;20033;-73
2024/01/23 11:42:40;;;;;;;28.35;5.68;;;8.30;99.90;;;;;;5072913;28;20048;-76
2024/01/23 11:45:27;;;;;;;22.98;5.20;;;8.30;99.90;;;;;;5056301;28;20531;-76
2024/01/23 11:48:01;;;;;;;29.45;5.25;;;8.20;99.90;;;;;;5072683;28;20046;-76
2024/01/23 11:50:29;;;;;;;31.38;5.40;;;8.20;99.90;;;;;;5072530;28;20131;-76
2024/01/23 11:52:57;;;;;;;29.60;5.13;;;8.30;99.90;;;;;;5072438;28;20509;-76
2024/01/23 11:55:24;;;;;;;27.52;5.22;;;8.30;99.90;;;;;;5072751;28;20516;-75
2024/01/23 11:57:51;;;;;;;27.95;5.28;;;8.30;99.90;;;;;;5072345;28;20040;-75
2024/01/23 12:00:18;;;;;;;29.13;5.60;;;8.40;99.90;;;;;;5072649;28;20485;-75
2024/01/23 12:02:47;;;;;;;28.00;5.13;;;8.40;99.90;;;;;;5072503;28;20474;-75
2024/01/23 12:05:13;;;;;;;27.73;5.38;;;8.40;99.90;;;;;;5072416;28;20115;-76
2024/01/23 12:07:40;;;;;;;28.38;5.25;;;8.50;99.90;;;;;;5056085;28;20044;-76
2024/01/23 12:10:15;;;;;;;31.40;5.18;;;8.40;99.90;;;;;;5072216;28;20123;-76
2024/01/23 12:12:41;;;;;;;23.55;5.65;;;8.40;99.90;;;;;;5081452;28;20523;-77
2024/01/23 12:15:08;;;;;;;27.85;5.63;;;8.40;99.90;;;;;;5075810;28;20079;-76
2024/01/23 12:17:35;;;;;;;29.50;5.13;;;8.40;99.90;;;;;;5092733;28;20043;-76
2024/01/23 12:20:11;;;;;;;25.83;4.53;;;8.30;99.90;;;;;;5075457;28;20047;-75
2024/01/23 12:22:37;;;;;;;29.20;5.03;;;8.40;99.90;;;;;;5092540;28;20487;-76
2024/01/23 12:25:07;;;;;;;25.52;4.90;;;8.40;99.90;;;;;;5092559;28;20039;-76
2024/01/23 12:27:33;;;;;;;22.40;5.30;;;8.50;99.90;;;;;;5092352;28;20040;-76
2024/01/23 12:30:00;;;;;;;27.08;4.85;;;8.50;99.90;;;;;;5075214;28;20511;-68
2024/01/23 12:32:27;;;;;;;25.88;5.40;;;8.40;99.90;;;;;;5075130;28;20036;-68
2024/01/23 12:34:53;;;;;;;27.50;5.50;;;8.40;99.90;;;;;;5075258;28;20195;-68
2024/01/23 12:37:23;;;;;;;22.55;5.05;;;8.30;99.90;;;;;;5092005;28;20043;-68
2024/01/23 12:39:49;;;;;;;31.08;4.75;;;8.30;99.90;;;;;;5091870;28;20036;-69
2024/01/23 12:42:15;;;;;;;26.70;5.32;;;8.30;99.90;;;;;;5091857;28;20043;-69
2024/01/23 12:44:41;;;;;;;28.10;5.15;;;8.30;99.90;;;;;;5091876;28;20082;-68
2024/01/23 12:47:11;;;;;;;23.10;4.65;;;8.30;99.90;;;;;;5074912;28;20050;-68